Skip Navigation Links Skip Navigation Links

Current Weather

Ronald Reagan Washington National, Washington

For information only: do not use for flight planning or navigation.
Latest weather
Observation time Thursday, June 21, 2018 4:52 PM EDT
Local time Thursday, June 21, 2018 5:55 PM EDT
Flight conditions Visual Meteorological Conditions
Winds
Wind direction North-Northwest (340°)
Wind speed 9 mph
Visibility 10 mi.
Sky condition
Ceiling 8,000 ft. overcast
Cloud layer few clouds 3,700 ft.
Cloud layer overcast 8,000 ft.
Temperature 83°F
Dewpoint 68°F
Altimeter 29.77 in.Hg
Pressure change last 3 hours0.01 in.Hg
Pressure falling
Derived measurements
Relative humidity 61%
Heat index 86°F
Density altitude 2034 ft.
Sea-level pressure 29.77 in.Hg
Remarks
Automated weather observing station with precipitation discriminator.
METAR KDCA 212052Z 34008KT 10SM FEW037 OVC080 28/20 A2977 RMK AO2 SLP082 T02830200 57004

Settings

Location code

InnerDrive.Weather 4.0.6615.0 Release CLR 4.0.30319.42000
Copyright ©2018 Inner Drive Technology. All rights reserved. Portions Copyright ©1986-2018 David Braverman.

Find weather

Site navigation


Skip Navigation Links

Place info

Page info

PayPal - The safer, easier way to pay online!

Return home.

Copyright ©2018 Inner Drive Technology. Purveyors of fine, hand-crafted computer software. Page printed 2018-06-21T21:55:00 UTC.